sensor_id;sensor_type;location;lat;lon;timestamp;P1;durP1;ratioP1;P2;durP2;ratioP2
27794;SDS011;15176;50.844;4.412;2023-02-01T00:01:44;24.92;;;7.85;;
27794;SDS011;15176;50.844;4.412;2023-02-01T00:04:11;29.10;;;8.88;;
27794;SDS011;15176;50.844;4.412;2023-02-01T00:06:37;29.52;;;8.80;;
27794;SDS011;15176;50.844;4.412;2023-02-01T00:09:03;22.63;;;9.32;;
27794;SDS011;15176;50.844;4.412;2023-02-01T00:11:29;20.88;;;8.65;;
27794;SDS011;15176;50.844;4.412;2023-02-01T00:13:56;26.52;;;8.43;;
27794;SDS011;15176;50.844;4.412;2023-02-01T00:16:23;27.85;;;9.30;;
27794;SDS011;15176;50.844;4.412;2023-02-01T00:18:51;26.02;;;9.80;;
27794;SDS011;15176;50.844;4.412;2023-02-01T00:21:20;31.58;;;10.48;;
27794;SDS011;15176;50.844;4.412;2023-02-01T00:23:46;24.17;;;9.20;;
27794;SDS011;15176;50.844;4.412;2023-02-01T00:26:46;30.17;;;9.77;;
27794;SDS011;15176;50.844;4.412;2023-02-01T00:29:12;27.13;;;9.68;;
27794;SDS011;15176;50.844;4.412;2023-02-01T00:31:43;28.73;;;8.73;;
27794;SDS011;15176;50.844;4.412;2023-02-01T00:34:13;30.42;;;8.85;;
27794;SDS011;15176;50.844;4.412;2023-02-01T00:36:41;28.48;;;8.70;;
27794;SDS011;15176;50.844;4.412;2023-02-01T00:39:07;29.90;;;9.70;;
27794;SDS011;15176;50.844;4.412;2023-02-01T00:41:33;28.33;;;7.95;;
27794;SDS011;15176;50.844;4.412;2023-02-01T00:43:59;27.08;;;8.55;;
27794;SDS011;15176;50.844;4.412;2023-02-01T00:46:26;24.08;;;8.55;;
27794;SDS011;15176;50.844;4.412;2023-02-01T00:48:52;24.38;;;7.20;;
27794;SDS011;15176;50.844;4.412;2023-02-01T00:51:19;25.00;;;7.15;;
27794;SDS011;15176;50.844;4.412;2023-02-01T00:53:47;24.15;;;8.23;;
27794;SDS011;15176;50.844;4.412;2023-02-01T00:56:13;22.10;;;7.95;;
27794;SDS011;15176;50.844;4.412;2023-02-01T00:58:41;22.85;;;8.60;;
27794;SDS011;15176;50.844;4.412;2023-02-01T01:01:09;28.45;;;8.63;;
27794;SDS011;15176;50.844;4.412;2023-02-01T01:03:43;27.08;;;8.57;;
27794;SDS011;15176;50.844;4.412;2023-02-01T01:06:12;24.42;;;8.20;;
27794;SDS011;15176;50.844;4.412;2023-02-01T01:08:40;21.30;;;7.65;;
27794;SDS011;15176;50.844;4.412;2023-02-01T01:13:33;23.52;;;7.60;;
27794;SDS011;15176;50.844;4.412;2023-02-01T01:16:00;32.13;;;7.07;;
27794;SDS011;15176;50.844;4.412;2023-02-01T01:18:27;21.80;;;6.45;;
27794;SDS011;15176;50.844;4.412;2023-02-01T01:20:54;25.35;;;7.38;;
27794;SDS011;15176;50.844;4.412;2023-02-01T01:23:20;21.65;;;6.43;;
27794;SDS011;15176;50.844;4.412;2023-02-01T01:25:46;24.30;;;6.57;;
27794;SDS011;15176;50.844;4.412;2023-02-01T01:28:12;22.10;;;6.97;;
27794;SDS011;15176;50.844;4.412;2023-02-01T01:30:38;22.10;;;5.93;;
27794;SDS011;15176;50.844;4.412;2023-02-01T01:33:07;23.30;;;6.13;;
27794;SDS011;15176;50.844;4.412;2023-02-01T01:35:33;24.75;;;5.15;;
27794;SDS011;15176;50.844;4.412;2023-02-01T01:37:59;30.15;;;6.03;;
27794;SDS011;15176;50.844;4.412;2023-02-01T01:40:25;20.65;;;4.85;;
27794;SDS011;15176;50.844;4.412;2023-02-01T01:42:52;20.50;;;4.70;;
27794;SDS011;15176;50.844;4.412;2023-02-01T01:50:35;17.15;;;3.92;;
27794;SDS011;15176;50.844;4.412;2023-02-01T01:53:05;22.27;;;4.35;;
27794;SDS011;15176;50.844;4.412;2023-02-01T01:55:36;21.27;;;3.72;;
27794;SDS011;15176;50.844;4.412;2023-02-01T01:58:05;20.42;;;3.40;;
27794;SDS011;15176;50.844;4.412;2023-02-01T02:00:39;27.83;;;4.32;;
27794;SDS011;15176;50.844;4.412;2023-02-01T02:03:14;23.88;;;4.07;;
27794;SDS011;15176;50.844;4.412;2023-02-01T02:05:46;19.67;;;4.38;;
27794;SDS011;15176;50.844;4.412;2023-02-01T02:08:15;22.90;;;3.47;;
27794;SDS011;15176;50.844;4.412;2023-02-01T02:10:42;23.17;;;3.63;;
27794;SDS011;15176;50.844;4.412;2023-02-01T02:13:34;18.98;;;3.85;;
27794;SDS011;15176;50.844;4.412;2023-02-01T02:18:44;20.40;;;3.65;;
27794;SDS011;15176;50.844;4.412;2023-02-01T02:21:17;14.88;;;3.05;;
27794;SDS011;15176;50.844;4.412;2023-02-01T02:26:55;19.40;;;4.28;;
27794;SDS011;15176;50.844;4.412;2023-02-01T02:34:45;16.42;;;3.15;;
27794;SDS011;15176;50.844;4.412;2023-02-01T02:37:36;22.58;;;3.47;;
27794;SDS011;15176;50.844;4.412;2023-02-01T02:43:01;26.90;;;3.45;;
27794;SDS011;15176;50.844;4.412;2023-02-01T02:46:01;17.23;;;2.78;;
27794;SDS011;15176;50.844;4.412;2023-02-01T02:51:59;20.67;;;3.42;;
27794;SDS011;15176;50.844;4.412;2023-02-01T02:54:48;21.67;;;3.80;;
27794;SDS011;15176;50.844;4.412;2023-02-01T02:57:22;18.00;;;3.40;;
27794;SDS011;15176;50.844;4.412;2023-02-01T03:00:22;17.85;;;3.40;;
27794;SDS011;15176;50.844;4.412;2023-02-01T03:03:08;19.05;;;3.58;;
27794;SDS011;15176;50.844;4.412;2023-02-01T03:05:52;24.83;;;4.13;;
27794;SDS011;15176;50.844;4.412;2023-02-01T03:08:22;17.05;;;3.97;;
27794;SDS011;15176;50.844;4.412;2023-02-01T03:21:33;21.55;;;4.13;;
27794;SDS011;15176;50.844;4.412;2023-02-01T03:24:03;16.95;;;3.72;;
27794;SDS011;15176;50.844;4.412;2023-02-01T03:26:34;19.50;;;3.63;;
27794;SDS011;15176;50.844;4.412;2023-02-01T03:29:08;26.42;;;3.78;;
27794;SDS011;15176;50.844;4.412;2023-02-01T03:31:40;17.70;;;3.70;;
27794;SDS011;15176;50.844;4.412;2023-02-01T03:34:06;16.58;;;3.17;;
27794;SDS011;15176;50.844;4.412;2023-02-01T03:39:08;22.33;;;3.78;;
27794;SDS011;15176;50.844;4.412;2023-02-01T03:41:56;22.73;;;3.67;;
27794;SDS011;15176;50.844;4.412;2023-02-01T03:44:35;24.52;;;3.95;;
27794;SDS011;15176;50.844;4.412;2023-02-01T03:47:19;20.67;;;3.90;;
27794;SDS011;15176;50.844;4.412;2023-02-01T03:49:59;16.63;;;3.60;;
27794;SDS011;15176;50.844;4.412;2023-02-01T03:52:42;20.85;;;3.92;;
27794;SDS011;15176;50.844;4.412;2023-02-01T03:55:10;18.75;;;4.00;;
27794;SDS011;15176;50.844;4.412;2023-02-01T03:57:45;17.73;;;3.50;;
27794;SDS011;15176;50.844;4.412;2023-02-01T04:00:18;16.50;;;3.42;;
27794;SDS011;15176;50.844;4.412;2023-02-01T04:02:47;17.10;;;3.50;;
27794;SDS011;15176;50.844;4.412;2023-02-01T04:05:13;16.48;;;3.40;;
27794;SDS011;15176;50.844;4.412;2023-02-01T04:07:40;20.40;;;3.55;;
27794;SDS011;15176;50.844;4.412;2023-02-01T04:10:06;21.63;;;3.70;;
27794;SDS011;15176;50.844;4.412;2023-02-01T04:12:33;20.40;;;3.63;;
27794;SDS011;15176;50.844;4.412;2023-02-01T04:14:58;21.40;;;4.15;;
27794;SDS011;15176;50.844;4.412;2023-02-01T04:17:24;20.38;;;3.55;;
27794;SDS011;15176;50.844;4.412;2023-02-01T04:19:50;25.05;;;3.75;;
27794;SDS011;15176;50.844;4.412;2023-02-01T04:22:15;14.48;;;3.38;;
27794;SDS011;15176;50.844;4.412;2023-02-01T04:24:41;23.33;;;3.47;;
27794;SDS011;15176;50.844;4.412;2023-02-01T04:27:07;16.85;;;3.25;;
27794;SDS011;15176;50.844;4.412;2023-02-01T04:29:33;20.52;;;3.40;;
27794;SDS011;15176;50.844;4.412;2023-02-01T04:31:59;21.95;;;3.72;;
27794;SDS011;15176;50.844;4.412;2023-02-01T04:34:24;16.23;;;3.72;;
27794;SDS011;15176;50.844;4.412;2023-02-01T04:36:51;21.13;;;3.15;;
27794;SDS011;15176;50.844;4.412;2023-02-01T04:39:17;14.43;;;3.60;;
27794;SDS011;15176;50.844;4.412;2023-02-01T04:41:42;18.58;;;3.88;;
27794;SDS011;15176;50.844;4.412;2023-02-01T04:44:27;19.08;;;3.45;;
27794;SDS011;15176;50.844;4.412;2023-02-01T04:46:53;19.73;;;3.15;;
27794;SDS011;15176;50.844;4.412;2023-02-01T04:49:18;21.02;;;3.75;;
27794;SDS011;15176;50.844;4.412;2023-02-01T04:51:47;22.58;;;3.92;;
27794;SDS011;15176;50.844;4.412;2023-02-01T04:54:13;22.55;;;3.42;;
27794;SDS011;15176;50.844;4.412;2023-02-01T04:56:39;18.83;;;3.55;;
27794;SDS011;15176;50.844;4.412;2023-02-01T04:59:05;18.42;;;3.30;;
27794;SDS011;15176;50.844;4.412;2023-02-01T05:01:31;21.30;;;3.75;;
27794;SDS011;15176;50.844;4.412;2023-02-01T05:03:57;20.00;;;3.53;;
27794;SDS011;15176;50.844;4.412;2023-02-01T05:06:23;21.95;;;3.88;;
27794;SDS011;15176;50.844;4.412;2023-02-01T05:08:49;20.92;;;3.13;;
27794;SDS011;15176;50.844;4.412;2023-02-01T05:11:15;17.38;;;3.80;;
27794;SDS011;15176;50.844;4.412;2023-02-01T05:13:59;22.42;;;3.90;;
27794;SDS011;15176;50.844;4.412;2023-02-01T05:16:25;18.70;;;3.10;;
27794;SDS011;15176;50.844;4.412;2023-02-01T05:18:52;25.15;;;3.72;;
27794;SDS011;15176;50.844;4.412;2023-02-01T05:21:18;21.60;;;3.22;;
27794;SDS011;15176;50.844;4.412;2023-02-01T05:23:44;22.90;;;3.78;;
27794;SDS011;15176;50.844;4.412;2023-02-01T05:26:28;20.98;;;3.53;;
27794;SDS011;15176;50.844;4.412;2023-02-01T05:28:53;18.42;;;3.10;;
27794;SDS011;15176;50.844;4.412;2023-02-01T05:31:19;20.67;;;4.00;;
27794;SDS011;15176;50.844;4.412;2023-02-01T05:33:45;20.02;;;3.92;;
27794;SDS011;15176;50.844;4.412;2023-02-01T05:36:11;26.52;;;3.53;;
27794;SDS011;15176;50.844;4.412;2023-02-01T05:38:37;30.42;;;3.45;;
27794;SDS011;15176;50.844;4.412;2023-02-01T05:41:03;20.17;;;3.30;;
27794;SDS011;15176;50.844;4.412;2023-02-01T05:43:28;19.25;;;3.33;;
27794;SDS011;15176;50.844;4.412;2023-02-01T05:45:54;21.75;;;3.47;;
27794;SDS011;15176;50.844;4.412;2023-02-01T05:48:20;21.13;;;3.72;;
27794;SDS011;15176;50.844;4.412;2023-02-01T05:50:45;24.00;;;4.00;;
27794;SDS011;15176;50.844;4.412;2023-02-01T05:53:12;26.48;;;3.80;;
27794;SDS011;15176;50.844;4.412;2023-02-01T05:55:38;17.23;;;3.92;;
27794;SDS011;15176;50.844;4.412;2023-02-01T05:58:04;27.08;;;3.70;;
27794;SDS011;15176;50.844;4.412;2023-02-01T06:00:30;15.90;;;2.85;;
27794;SDS011;15176;50.844;4.412;2023-02-01T06:02:56;20.90;;;3.45;;
27794;SDS011;15176;50.844;4.412;2023-02-01T06:05:23;27.65;;;3.83;;
27794;SDS011;15176;50.844;4.412;2023-02-01T06:07:48;27.80;;;3.67;;
27794;SDS011;15176;50.844;4.412;2023-02-01T06:10:17;16.58;;;3.15;;
27794;SDS011;15176;50.844;4.412;2023-02-01T06:12:43;20.40;;;3.45;;
27794;SDS011;15176;50.844;4.412;2023-02-01T06:15:10;22.90;;;3.72;;
27794;SDS011;15176;50.844;4.412;2023-02-01T06:17:43;20.65;;;3.42;;
27794;SDS011;15176;50.844;4.412;2023-02-01T06:20:11;18.77;;;3.45;;
27794;SDS011;15176;50.844;4.412;2023-02-01T06:22:38;24.67;;;3.22;;
27794;SDS011;15176;50.844;4.412;2023-02-01T06:25:05;19.42;;;3.17;;
27794;SDS011;15176;50.844;4.412;2023-02-01T06:27:32;18.52;;;3.50;;
27794;SDS011;15176;50.844;4.412;2023-02-01T06:29:58;21.95;;;3.95;;
27794;SDS011;15176;50.844;4.412;2023-02-01T06:32:25;26.33;;;3.08;;
27794;SDS011;15176;50.844;4.412;2023-02-01T06:34:51;27.05;;;3.55;;
27794;SDS011;15176;50.844;4.412;2023-02-01T06:37:20;20.02;;;3.55;;
27794;SDS011;15176;50.844;4.412;2023-02-01T06:39:48;26.08;;;3.65;;
27794;SDS011;15176;50.844;4.412;2023-02-01T06:42:14;23.15;;;3.72;;
27794;SDS011;15176;50.844;4.412;2023-02-01T06:44:40;23.20;;;3.75;;
27794;SDS011;15176;50.844;4.412;2023-02-01T06:47:05;29.70;;;4.30;;
27794;SDS011;15176;50.844;4.412;2023-02-01T06:49:31;14.73;;;4.00;;
27794;SDS011;15176;50.844;4.412;2023-02-01T06:51:57;24.33;;;4.15;;
27794;SDS011;15176;50.844;4.412;2023-02-01T06:54:27;17.20;;;3.50;;
27794;SDS011;15176;50.844;4.412;2023-02-01T06:56:53;31.45;;;3.72;;
27794;SDS011;15176;50.844;4.412;2023-02-01T06:59:21;20.48;;;3.33;;
27794;SDS011;15176;50.844;4.412;2023-02-01T07:01:49;18.42;;;4.03;;
27794;SDS011;15176;50.844;4.412;2023-02-01T07:04:16;18.75;;;3.47;;
27794;SDS011;15176;50.844;4.412;2023-02-01T07:06:42;29.63;;;3.53;;
27794;SDS011;15176;50.844;4.412;2023-02-01T07:09:07;18.60;;;3.15;;
27794;SDS011;15176;50.844;4.412;2023-02-01T07:11:33;22.73;;;3.70;;
27794;SDS011;15176;50.844;4.412;2023-02-01T07:13:59;29.38;;;3.78;;
27794;SDS011;15176;50.844;4.412;2023-02-01T07:16:25;33.35;;;4.13;;
27794;SDS011;15176;50.844;4.412;2023-02-01T07:18:51;18.88;;;3.40;;
27794;SDS011;15176;50.844;4.412;2023-02-01T07:21:17;21.70;;;3.28;;
27794;SDS011;15176;50.844;4.412;2023-02-01T07:23:44;22.65;;;3.72;;
27794;SDS011;15176;50.844;4.412;2023-02-01T07:26:10;22.85;;;3.83;;
27794;SDS011;15176;50.844;4.412;2023-02-01T07:28:39;29.63;;;4.07;;
27794;SDS011;15176;50.844;4.412;2023-02-01T07:31:15;23.05;;;4.22;;
27794;SDS011;15176;50.844;4.412;2023-02-01T07:33:49;23.60;;;3.88;;
27794;SDS011;15176;50.844;4.412;2023-02-01T07:36:19;24.25;;;4.47;;
27794;SDS011;15176;50.844;4.412;2023-02-01T07:38:45;40.00;;;16.52;;
27794;SDS011;15176;50.844;4.412;2023-02-01T07:41:14;38.67;;;14.57;;
27794;SDS011;15176;50.844;4.412;2023-02-01T07:43:42;21.02;;;3.60;;
27794;SDS011;15176;50.844;4.412;2023-02-01T07:46:09;26.23;;;4.78;;
27794;SDS011;15176;50.844;4.412;2023-02-01T07:48:35;23.30;;;4.47;;
27794;SDS011;15176;50.844;4.412;2023-02-01T07:51:09;21.13;;;4.35;;
27794;SDS011;15176;50.844;4.412;2023-02-01T07:53:38;25.92;;;4.28;;
27794;SDS011;15176;50.844;4.412;2023-02-01T07:56:04;29.45;;;3.88;;
27794;SDS011;15176;50.844;4.412;2023-02-01T07:58:35;23.73;;;4.38;;
27794;SDS011;15176;50.844;4.412;2023-02-01T08:01:03;27.00;;;4.15;;
27794;SDS011;15176;50.844;4.412;2023-02-01T08:03:50;23.75;;;4.80;;
27794;SDS011;15176;50.844;4.412;2023-02-01T08:06:26;21.58;;;3.97;;
27794;SDS011;15176;50.844;4.412;2023-02-01T08:08:53;22.45;;;3.80;;
27794;SDS011;15176;50.844;4.412;2023-02-01T08:11:19;23.65;;;4.57;;
27794;SDS011;15176;50.844;4.412;2023-02-01T08:13:45;23.02;;;4.35;;
27794;SDS011;15176;50.844;4.412;2023-02-01T08:16:13;25.90;;;3.80;;
27794;SDS011;15176;50.844;4.412;2023-02-01T08:18:40;23.65;;;4.18;;
27794;SDS011;15176;50.844;4.412;2023-02-01T08:21:08;23.08;;;4.63;;
27794;SDS011;15176;50.844;4.412;2023-02-01T08:23:37;24.67;;;3.85;;
27794;SDS011;15176;50.844;4.412;2023-02-01T08:26:05;30.25;;;4.53;;
27794;SDS011;15176;50.844;4.412;2023-02-01T08:28:33;21.08;;;3.78;;
27794;SDS011;15176;50.844;4.412;2023-02-01T08:30:58;33.33;;;5.13;;
27794;SDS011;15176;50.844;4.412;2023-02-01T08:33:28;30.63;;;3.88;;
27794;SDS011;15176;50.844;4.412;2023-02-01T08:35:54;33.00;;;7.70;;
27794;SDS011;15176;50.844;4.412;2023-02-01T08:38:20;18.20;;;3.53;;
27794;SDS011;15176;50.844;4.412;2023-02-01T08:40:46;23.05;;;4.38;;
27794;SDS011;15176;50.844;4.412;2023-02-01T08:43:11;17.08;;;3.75;;
27794;SDS011;15176;50.844;4.412;2023-02-01T08:45:37;18.15;;;3.58;;
27794;SDS011;15176;50.844;4.412;2023-02-01T08:48:04;30.52;;;4.90;;
27794;SDS011;15176;50.844;4.412;2023-02-01T08:50:30;22.08;;;4.15;;
27794;SDS011;15176;50.844;4.412;2023-02-01T08:52:57;20.58;;;3.70;;
27794;SDS011;15176;50.844;4.412;2023-02-01T08:55:22;21.13;;;4.47;;
27794;SDS011;15176;50.844;4.412;2023-02-01T08:57:48;23.00;;;4.32;;
27794;SDS011;15176;50.844;4.412;2023-02-01T09:00:15;26.42;;;4.38;;
27794;SDS011;15176;50.844;4.412;2023-02-01T09:02:42;25.75;;;4.10;;
27794;SDS011;15176;50.844;4.412;2023-02-01T09:05:07;29.98;;;4.40;;
27794;SDS011;15176;50.844;4.412;2023-02-01T09:07:35;20.90;;;4.43;;
27794;SDS011;15176;50.844;4.412;2023-02-01T09:10:02;20.25;;;4.22;;
27794;SDS011;15176;50.844;4.412;2023-02-01T09:12:29;25.20;;;4.53;;
27794;SDS011;15176;50.844;4.412;2023-02-01T09:14:59;18.63;;;4.07;;
27794;SDS011;15176;50.844;4.412;2023-02-01T09:17:25;23.13;;;4.45;;
27794;SDS011;15176;50.844;4.412;2023-02-01T09:19:52;22.48;;;4.60;;
27794;SDS011;15176;50.844;4.412;2023-02-01T09:22:19;21.85;;;4.07;;
27794;SDS011;15176;50.844;4.412;2023-02-01T09:24:45;25.50;;;4.10;;
27794;SDS011;15176;50.844;4.412;2023-02-01T09:27:10;21.88;;;3.50;;
27794;SDS011;15176;50.844;4.412;2023-02-01T09:29:36;23.05;;;3.33;;
27794;SDS011;15176;50.844;4.412;2023-02-01T09:32:03;25.25;;;4.28;;
27794;SDS011;15176;50.844;4.412;2023-02-01T09:34:31;23.50;;;4.55;;
27794;SDS011;15176;50.844;4.412;2023-02-01T09:36:58;17.35;;;3.85;;
27794;SDS011;15176;50.844;4.412;2023-02-01T09:39:23;17.52;;;4.15;;
27794;SDS011;15176;50.844;4.412;2023-02-01T09:42:08;16.90;;;3.78;;
27794;SDS011;15176;50.844;4.412;2023-02-01T09:47:45;18.95;;;4.68;;
27794;SDS011;15176;50.844;4.412;2023-02-01T09:50:16;22.77;;;4.18;;
27794;SDS011;15176;50.844;4.412;2023-02-01T09:53:00;18.70;;;3.38;;
27794;SDS011;15176;50.844;4.412;2023-02-01T09:55:45;17.77;;;3.47;;
27794;SDS011;15176;50.844;4.412;2023-02-01T10:00:50;17.95;;;4.00;;
27794;SDS011;15176;50.844;4.412;2023-02-01T10:03:18;25.05;;;4.57;;
27794;SDS011;15176;50.844;4.412;2023-02-01T10:17:00;20.98;;;3.50;;
27794;SDS011;15176;50.844;4.412;2023-02-01T10:28:20;18.75;;;3.42;;
27794;SDS011;15176;50.844;4.412;2023-02-01T10:30:49;13.32;;;3.45;;
27794;SDS011;15176;50.844;4.412;2023-02-01T10:38:37;19.30;;;3.47;;
27794;SDS011;15176;50.844;4.412;2023-02-01T10:41:16;15.18;;;3.47;;
27794;SDS011;15176;50.844;4.412;2023-02-01T10:43:56;15.27;;;3.15;;
27794;SDS011;15176;50.844;4.412;2023-02-01T10:46:23;21.02;;;7.85;;
27794;SDS011;15176;50.844;4.412;2023-02-01T10:48:51;16.70;;;4.40;;
27794;SDS011;15176;50.844;4.412;2023-02-01T10:51:28;15.32;;;3.13;;
27794;SDS011;15176;50.844;4.412;2023-02-01T10:54:09;14.40;;;2.80;;
27794;SDS011;15176;50.844;4.412;2023-02-01T10:56:41;15.10;;;3.05;;
27794;SDS011;15176;50.844;4.412;2023-02-01T10:59:15;12.85;;;2.40;;
27794;SDS011;15176;50.844;4.412;2023-02-01T11:01:49;16.48;;;3.03;;
27794;SDS011;15176;50.844;4.412;2023-02-01T11:04:30;14.90;;;2.63;;
27794;SDS011;15176;50.844;4.412;2023-02-01T11:09:54;15.65;;;3.35;;
27794;SDS011;15176;50.844;4.412;2023-02-01T11:12:32;15.30;;;2.80;;
27794;SDS011;15176;50.844;4.412;2023-02-01T11:15:23;16.67;;;3.00;;
27794;SDS011;15176;50.844;4.412;2023-02-01T11:17:49;14.55;;;3.25;;
27794;SDS011;15176;50.844;4.412;2023-02-01T11:22:56;14.07;;;3.13;;
27794;SDS011;15176;50.844;4.412;2023-02-01T11:25:24;10.18;;;2.50;;
27794;SDS011;15176;50.844;4.412;2023-02-01T11:27:51;17.55;;;2.70;;
27794;SDS011;15176;50.844;4.412;2023-02-01T11:30:21;19.35;;;2.92;;
27794;SDS011;15176;50.844;4.412;2023-02-01T11:33:03;13.35;;;2.50;;
27794;SDS011;15176;50.844;4.412;2023-02-01T11:35:31;20.38;;;6.78;;
27794;SDS011;15176;50.844;4.412;2023-02-01T11:37:59;14.75;;;2.95;;
27794;SDS011;15176;50.844;4.412;2023-02-01T11:40:27;22.10;;;3.78;;
27794;SDS011;15176;50.844;4.412;2023-02-01T11:43:00;20.27;;;3.53;;
27794;SDS011;15176;50.844;4.412;2023-02-01T11:45:27;21.10;;;2.83;;
27794;SDS011;15176;50.844;4.412;2023-02-01T11:48:00;16.00;;;2.47;;
27794;SDS011;15176;50.844;4.412;2023-02-01T11:53:18;11.82;;;3.00;;
27794;SDS011;15176;50.844;4.412;2023-02-01T12:01:21;14.32;;;2.92;;
27794;SDS011;15176;50.844;4.412;2023-02-01T12:06:54;14.65;;;2.70;;
27794;SDS011;15176;50.844;4.412;2023-02-01T12:09:49;12.30;;;2.80;;
27794;SDS011;15176;50.844;4.412;2023-02-01T12:15:27;12.90;;;2.72;;
27794;SDS011;15176;50.844;4.412;2023-02-01T12:21:03;9.85;;;2.50;;
27794;SDS011;15176;50.844;4.412;2023-02-01T12:31:57;9.45;;;2.17;;
27794;SDS011;15176;50.844;4.412;2023-02-01T12:34:44;8.48;;;1.90;;
27794;SDS011;15176;50.844;4.412;2023-02-01T12:42:43;12.40;;;2.15;;
27794;SDS011;15176;50.844;4.412;2023-02-01T12:45:36;9.70;;;1.73;;
27794;SDS011;15176;50.844;4.412;2023-02-01T12:51:21;15.07;;;1.98;;
27794;SDS011;15176;50.844;4.412;2023-02-01T12:53:52;15.43;;;2.35;;
27794;SDS011;15176;50.844;4.412;2023-02-01T12:56:24;19.27;;;2.80;;
27794;SDS011;15176;50.844;4.412;2023-02-01T12:59:03;11.20;;;1.70;;
27794;SDS011;15176;50.844;4.412;2023-02-01T13:04:05;7.80;;;2.13;;
27794;SDS011;15176;50.844;4.412;2023-02-01T13:09:31;15.20;;;2.10;;
27794;SDS011;15176;50.844;4.412;2023-02-01T13:12:11;16.80;;;1.67;;
27794;SDS011;15176;50.844;4.412;2023-02-01T13:17:23;10.65;;;1.90;;
27794;SDS011;15176;50.844;4.412;2023-02-01T13:22:35;8.27;;;1.67;;
27794;SDS011;15176;50.844;4.412;2023-02-01T13:27:42;11.00;;;1.80;;
27794;SDS011;15176;50.844;4.412;2023-02-01T13:30:13;8.70;;;2.05;;
27794;SDS011;15176;50.844;4.412;2023-02-01T13:33:04;10.27;;;1.83;;
27794;SDS011;15176;50.844;4.412;2023-02-01T13:44:16;12.05;;;2.10;;
27794;SDS011;15176;50.844;4.412;2023-02-01T13:46:56;12.65;;;2.03;;
27794;SDS011;15176;50.844;4.412;2023-02-01T13:49:26;11.65;;;1.75;;
27794;SDS011;15176;50.844;4.412;2023-02-01T13:51:55;12.30;;;3.20;;
27794;SDS011;15176;50.844;4.412;2023-02-01T13:54:27;8.57;;;2.00;;
27794;SDS011;15176;50.844;4.412;2023-02-01T13:56:58;10.45;;;1.80;;
27794;SDS011;15176;50.844;4.412;2023-02-01T14:16:10;11.88;;;2.28;;
27794;SDS011;15176;50.844;4.412;2023-02-01T14:23:46;13.10;;;2.20;;
27794;SDS011;15176;50.844;4.412;2023-02-01T14:26:21;10.23;;;1.90;;
27794;SDS011;15176;50.844;4.412;2023-02-01T14:44:43;12.48;;;2.20;;
27794;SDS011;15176;50.844;4.412;2023-02-01T14:47:11;13.63;;;2.33;;
27794;SDS011;15176;50.844;4.412;2023-02-01T15:12:25;15.00;;;2.17;;
27794;SDS011;15176;50.844;4.412;2023-02-01T15:15:13;11.98;;;2.72;;
27794;SDS011;15176;50.844;4.412;2023-02-01T15:17:42;11.73;;;2.58;;
27794;SDS011;15176;50.844;4.412;2023-02-01T15:20:28;12.98;;;2.47;;
27794;SDS011;15176;50.844;4.412;2023-02-01T15:25:33;15.73;;;2.53;;
27794;SDS011;15176;50.844;4.412;2023-02-01T15:28:03;14.48;;;2.50;;
27794;SDS011;15176;50.844;4.412;2023-02-01T15:30:31;14.88;;;2.65;;
27794;SDS011;15176;50.844;4.412;2023-02-01T15:33:15;18.33;;;2.97;;
27794;SDS011;15176;50.844;4.412;2023-02-01T15:35:44;16.23;;;2.67;;
27794;SDS011;15176;50.844;4.412;2023-02-01T15:41:00;17.92;;;2.88;;
27794;SDS011;15176;50.844;4.412;2023-02-01T15:43:27;16.67;;;4.38;;
27794;SDS011;15176;50.844;4.412;2023-02-01T15:45:58;14.88;;;3.30;;
27794;SDS011;15176;50.844;4.412;2023-02-01T15:48:26;13.55;;;2.42;;
27794;SDS011;15176;50.844;4.412;2023-02-01T15:50:56;20.63;;;3.08;;
27794;SDS011;15176;50.844;4.412;2023-02-01T15:53:23;17.20;;;3.72;;
27794;SDS011;15176;50.844;4.412;2023-02-01T15:55:52;18.80;;;3.90;;
27794;SDS011;15176;50.844;4.412;2023-02-01T15:58:21;17.98;;;3.67;;
27794;SDS011;15176;50.844;4.412;2023-02-01T16:06:44;14.38;;;2.80;;
27794;SDS011;15176;50.844;4.412;2023-02-01T16:09:12;14.80;;;3.10;;
27794;SDS011;15176;50.844;4.412;2023-02-01T16:12:01;22.13;;;4.70;;
27794;SDS011;15176;50.844;4.412;2023-02-01T16:14:26;13.10;;;3.17;;
27794;SDS011;15176;50.844;4.412;2023-02-01T16:16:53;17.02;;;3.30;;
27794;SDS011;15176;50.844;4.412;2023-02-01T16:19:21;15.75;;;2.80;;
27794;SDS011;15176;50.844;4.412;2023-02-01T16:21:49;15.65;;;2.72;;
27794;SDS011;15176;50.844;4.412;2023-02-01T16:24:15;18.63;;;3.38;;
27794;SDS011;15176;50.844;4.412;2023-02-01T16:26:40;11.07;;;2.58;;
27794;SDS011;15176;50.844;4.412;2023-02-01T16:29:06;17.67;;;2.63;;
27794;SDS011;15176;50.844;4.412;2023-02-01T16:31:33;16.13;;;2.58;;
27794;SDS011;15176;50.844;4.412;2023-02-01T16:34:01;14.00;;;3.05;;
27794;SDS011;15176;50.844;4.412;2023-02-01T16:36:28;15.18;;;3.00;;
27794;SDS011;15176;50.844;4.412;2023-02-01T16:38:54;15.70;;;3.25;;
27794;SDS011;15176;50.844;4.412;2023-02-01T16:41:21;18.98;;;3.38;;
27794;SDS011;15176;50.844;4.412;2023-02-01T16:43:49;19.50;;;3.08;;
27794;SDS011;15176;50.844;4.412;2023-02-01T16:46:17;19.38;;;3.67;;
27794;SDS011;15176;50.844;4.412;2023-02-01T16:48:51;17.17;;;2.83;;
27794;SDS011;15176;50.844;4.412;2023-02-01T16:51:22;14.55;;;2.67;;
27794;SDS011;15176;50.844;4.412;2023-02-01T16:53:50;15.50;;;2.70;;
27794;SDS011;15176;50.844;4.412;2023-02-01T16:56:17;22.08;;;3.10;;
27794;SDS011;15176;50.844;4.412;2023-02-01T16:58:45;16.10;;;3.03;;
27794;SDS011;15176;50.844;4.412;2023-02-01T17:01:12;16.65;;;3.05;;
27794;SDS011;15176;50.844;4.412;2023-02-01T17:03:40;17.30;;;4.32;;
27794;SDS011;15176;50.844;4.412;2023-02-01T17:06:06;22.20;;;3.40;;
27794;SDS011;15176;50.844;4.412;2023-02-01T17:08:36;19.63;;;4.20;;
27794;SDS011;15176;50.844;4.412;2023-02-01T17:11:06;16.88;;;4.88;;
27794;SDS011;15176;50.844;4.412;2023-02-01T17:13:32;17.60;;;3.83;;
27794;SDS011;15176;50.844;4.412;2023-02-01T17:18:50;27.13;;;7.40;;
27794;SDS011;15176;50.844;4.412;2023-02-01T17:21:47;22.77;;;5.63;;
27794;SDS011;15176;50.844;4.412;2023-02-01T17:24:17;21.50;;;5.93;;
27794;SDS011;15176;50.844;4.412;2023-02-01T17:26:44;19.52;;;5.85;;
27794;SDS011;15176;50.844;4.412;2023-02-01T17:29:10;20.90;;;8.05;;
27794;SDS011;15176;50.844;4.412;2023-02-01T17:31:38;18.98;;;5.95;;
27794;SDS011;15176;50.844;4.412;2023-02-01T17:34:06;21.00;;;6.05;;
27794;SDS011;15176;50.844;4.412;2023-02-01T17:36:33;24.92;;;8.18;;
27794;SDS011;15176;50.844;4.412;2023-02-01T17:39:00;23.88;;;7.70;;
27794;SDS011;15176;50.844;4.412;2023-02-01T17:41:26;21.33;;;6.22;;
27794;SDS011;15176;50.844;4.412;2023-02-01T17:43:55;20.00;;;4.72;;
27794;SDS011;15176;50.844;4.412;2023-02-01T17:46:21;17.52;;;4.05;;
27794;SDS011;15176;50.844;4.412;2023-02-01T17:48:51;25.20;;;5.43;;
27794;SDS011;15176;50.844;4.412;2023-02-01T17:51:21;14.77;;;3.40;;
27794;SDS011;15176;50.844;4.412;2023-02-01T17:53:51;20.45;;;3.80;;
27794;SDS011;15176;50.844;4.412;2023-02-01T17:56:18;18.52;;;3.72;;
27794;SDS011;15176;50.844;4.412;2023-02-01T17:58:46;20.15;;;3.83;;
27794;SDS011;15176;50.844;4.412;2023-02-01T18:01:13;18.08;;;4.15;;
27794;SDS011;15176;50.844;4.412;2023-02-01T18:03:42;23.40;;;4.25;;
27794;SDS011;15176;50.844;4.412;2023-02-01T18:06:18;23.33;;;4.05;;
27794;SDS011;15176;50.844;4.412;2023-02-01T18:08:54;24.05;;;4.00;;
27794;SDS011;15176;50.844;4.412;2023-02-01T18:11:21;21.25;;;4.22;;
27794;SDS011;15176;50.844;4.412;2023-02-01T18:13:49;19.17;;;3.47;;
27794;SDS011;15176;50.844;4.412;2023-02-01T18:18:52;19.23;;;4.00;;
27794;SDS011;15176;50.844;4.412;2023-02-01T18:21:25;10.57;;;3.28;;